Tendoy, Idaho
Current Conditions -  °F | °C
As of 10:55 PM on Wednesday 22 Oct 2014 (Local Time) from KLLJ Reporting Station
Broken Clouds Broken Clouds  
Wind Chill: 46°   Ceiling: 8000
Heat Index: 46°   Visibility: 10mi
Dew Point: 34°   Wind: 0mph
Humidity: 63%   Direction: NA
Pressure: 30.07"   Gusts: NA
Location:  44.96°N, 113.64°W
Report Text: KLLJ 230455Z AUTO 00000KT 10SM BKN080 08/01 A3007 RMK AO2 SLP172 T00780011
Loading
Personal Weather Stations






























Interactive Weather Map
Tropical Storm Tracking
New forecast layout! Learn more

10-Day Weather Forecast

Advertisements
Track Severe Weather on mobile